Time;durP1;ratioP1;P1;durP2;ratioP2;P2;SDS_P1;SDS_P2;PMS_P1;PMS_P2;Temp;Humidity;BMP_temperature;BMP_pressure;BME280_temperature;BME280_humidity;BME280_pressure;Samples;Min_cycle;Max_cycle;Signal;HPM_P1;HPM_P2
2021/04/11 00:00:51;;;;;;;77.92;41.35;;;;;;;6.74;60.71;100318.00;2201787;80;33146;-61
2021/04/11 00:03:53;;;;;;;80.70;44.08;;;;;;;6.73;60.91;100316.25;2182920;81;30795;-61
2021/04/11 00:06:56;;;;;;;86.10;48.05;;;;;;;6.68;61.10;100302.21;2183303;80;27673;-61
2021/04/11 00:09:58;;;;;;;81.92;44.42;;;;;;;6.65;61.30;100299.65;2184719;81;29644;-61
2021/04/11 00:13:03;;;;;;;85.67;46.75;;;;;;;6.62;60.86;100293.98;2184951;81;30495;-60
2021/04/11 00:16:06;;;;;;;91.05;48.08;;;;;;;6.59;60.74;100286.09;2184956;81;33948;-60
2021/04/11 00:19:09;;;;;;;90.72;50.75;;;;;;;6.53;61.22;100282.32;2194648;80;29163;-60
2021/04/11 00:22:12;;;;;;;84.75;49.10;;;;;;;6.46;61.18;100273.64;2213503;80;27881;-60
2021/04/11 00:25:19;;;;;;;91.53;49.63;;;;;;;6.41;61.15;100276.94;2207975;80;28885;-60
2021/04/11 00:28:22;;;;;;;84.45;45.63;;;;;;;6.36;61.13;100269.55;2208910;80;32395;-59
2021/04/11 00:31:24;;;;;;;84.20;44.67;;;;;;;6.31;61.17;100273.70;2213139;80;33124;-60
2021/04/11 00:34:26;;;;;;;83.25;46.55;;;;;;;6.27;61.33;100272.05;2223747;80;29201;-60
2021/04/11 00:37:29;;;;;;;81.05;45.25;;;;;;;6.25;61.24;100270.38;2223914;80;27660;-59
2021/04/11 00:40:35;;;;;;;91.85;50.45;;;;;;;6.23;61.12;100273.95;2223388;80;28789;-60
2021/04/11 00:43:38;;;;;;;100.78;52.73;;;;;;;6.21;61.31;100268.25;2191728;80;31128;-59
2021/04/11 00:46:54;;;;;;;94.13;52.55;;;;;;;6.21;61.50;100268.25;2184893;81;33153;-61
2021/04/11 00:49:57;;;;;;;98.22;53.33;;;;;;;6.16;62.01;100258.23;2184862;81;29162;-62
2021/04/11 00:52:59;;;;;;;90.72;50.17;;;;;;;6.10;61.77;100259.31;2207232;80;28038;-60
2021/04/11 00:56:03;;;;;;;83.55;49.05;;;;;;;6.04;61.79;100256.36;2177298;81;29807;-61
2021/04/11 00:59:07;;;;;;;91.53;48.73;;;;;;;5.99;61.93;100257.39;2187086;81;32086;-60
2021/04/11 01:02:10;;;;;;;62.23;36.37;;;;;;;5.93;61.89;100254.47;2189383;80;33106;-61
2021/04/11 01:05:25;;;;;;;77.90;46.08;;;;;;;5.88;61.74;100253.30;2186813;81;28382;-59
2021/04/11 01:08:30;;;;;;;76.05;44.18;;;;;;;5.83;61.52;100255.69;2192535;81;27715;-60
2021/04/11 01:11:32;;;;;;;89.10;47.03;;;;;;;5.75;61.56;100250.61;2193621;81;29961;-60
2021/04/11 01:14:35;;;;;;;79.95;45.73;;;;;;;5.67;61.33;100252.61;2220379;80;31581;-60
2021/04/11 01:17:38;;;;;;;80.12;45.78;;;;;;;5.58;61.34;100247.11;2191667;80;33990;-60
2021/04/11 01:20:41;;;;;;;80.32;45.38;;;;;;;5.48;61.34;100247.40;2189691;80;30259;-60
2021/04/11 01:24:15;;;;;;;80.75;44.30;;;;;;;5.40;61.48;100243.22;2208948;80;27643;-60
2021/04/11 01:27:32;;;;;;;77.53;44.43;;;;;;;5.31;61.64;100241.70;2313954;76;27693;-61
2021/04/11 01:30:38;;;;;;;78.22;45.10;;;;;;;5.17;61.72;100237.66;2261669;78;27650;-62
2021/04/11 01:33:48;;;;;;;81.25;46.35;;;;;;;5.07;61.74;100236.16;2261998;78;28838;-62
2021/04/11 01:36:51;;;;;;;88.25;47.43;;;;;;;4.99;61.81;100229.73;2273158;77;32074;-62
2021/04/11 01:39:53;;;;;;;74.22;42.80;;;;;;;4.91;61.88;100227.77;2293964;77;34045;-62
2021/04/11 01:42:56;;;;;;;82.70;44.67;;;;;;;4.81;62.00;100219.19;2262038;78;28975;-62
2021/04/11 01:45:58;;;;;;;76.42;42.50;;;;;;;4.76;62.10;100218.90;2262026;78;28144;-62
2021/04/11 01:49:00;;;;;;;81.75;42.13;;;;;;;4.72;62.25;100220.73;2298447;77;28821;-62
2021/04/11 01:52:07;;;;;;;81.67;43.68;;;;;;;4.70;62.30;100214.63;2272729;77;32102;-63
2021/04/11 01:55:11;;;;;;;78.75;42.48;;;;;;;4.69;62.31;100214.22;2297225;77;32983;-63
2021/04/11 01:58:14;;;;;;;61.10;33.53;;;;;;;4.67;62.37;100217.36;2262209;78;28898;-63
2021/04/11 02:01:32;;;;;;;74.80;43.80;;;;;;;4.64;62.41;100216.11;2261872;77;27630;-63
2021/04/11 02:04:35;;;;;;;79.32;46.42;;;;;;;4.60;62.42;100220.63;2261533;78;28916;-61
2021/04/11 02:07:37;;;;;;;87.15;46.53;;;;;;;4.52;62.42;100208.90;2295986;77;31189;-62
2021/04/11 02:10:44;;;;;;;82.45;45.67;;;;;;;4.47;62.56;100205.48;2302954;77;33116;-62
2021/04/11 02:13:47;;;;;;;74.92;43.85;;;;;;;4.42;62.52;100204.72;2303485;77;28858;-61
2021/04/11 02:16:49;;;;;;;83.60;47.83;;;;;;;4.35;62.59;100203.16;2300968;77;27704;-61
2021/04/11 02:19:52;;;;;;;84.95;45.20;;;;;;;4.30;62.81;100201.06;2302817;77;28810;-61
2021/04/11 02:22:56;;;;;;;84.60;47.80;;;;;;;4.24;63.00;100206.08;2303510;77;32114;-60
2021/04/11 02:25:58;;;;;;;83.82;48.90;;;;;;;4.20;62.91;100205.73;2300008;77;34004;-61
2021/04/11 02:29:05;;;;;;;87.50;48.28;;;;;;;4.13;63.12;100200.17;2261906;77;28903;-61
2021/04/11 02:32:09;;;;;;;79.32;47.00;;;;;;;4.06;63.09;100205.62;2260722;78;27665;-62
2021/04/11 02:35:19;;;;;;;81.47;46.37;;;;;;;4.00;63.12;100207.08;2262085;78;28874;-62
2021/04/11 02:38:22;;;;;;;88.17;46.98;;;;;;;3.93;63.15;100202.85;2296828;77;32173;-62
2021/04/11 02:41:26;;;;;;;77.75;42.73;;;;;;;3.86;63.17;100203.45;2302642;77;33096;-61
2021/04/11 02:44:28;;;;;;;84.07;43.50;;;;;;;3.82;63.44;100206.19;2301634;77;28021;-61
2021/04/11 02:47:30;;;;;;;86.25;47.03;;;;;;;3.79;63.62;100201.41;2302673;77;27923;-62
2021/04/11 02:50:35;;;;;;;82.33;46.65;;;;;;;3.77;64.09;100198.35;2302730;77;28870;-62
2021/04/11 02:53:38;;;;;;;89.57;49.53;;;;;;;3.79;64.13;100201.41;2235854;77;32104;-62
2021/04/11 02:56:42;;;;;;;80.38;45.50;;;;;;;3.78;64.10;100198.34;2302787;77;33123;-61
2021/04/11 02:59:51;;;;;;;75.65;45.17;;;;;;;3.79;64.12;100194.78;2302725;77;28855;-62
2021/04/11 03:02:53;;;;;;;80.07;47.90;;;;;;;3.79;64.09;100193.45;2302860;77;27687;-61
2021/04/11 03:05:59;;;;;;;85.70;49.88;;;;;;;3.78;64.11;100196.13;2301550;77;29718;-60
2021/04/11 03:09:09;;;;;;;84.62;46.23;;;;;;;3.76;63.98;100193.95;2302545;77;31124;-61
2021/04/11 03:12:11;;;;;;;86.12;50.33;;;;;;;3.73;63.93;100184.75;2301707;77;33980;-61
2021/04/11 03:15:15;;;;;;;91.05;49.03;;;;;;;3.69;64.10;100183.95;2271368;77;28852;-62
2021/04/11 03:18:18;;;;;;;86.00;50.65;;;;;;;3.64;64.14;100177.91;2302699;77;28144;-62
2021/04/11 03:21:21;;;;;;;91.67;51.00;;;;;;;3.60;64.20;100183.72;2302509;77;28827;-62
2021/04/11 03:24:24;;;;;;;90.72;48.90;;;;;;;3.56;64.66;100172.77;2277630;77;31119;-62
2021/04/11 03:27:40;;;;;;;87.47;50.38;;;;;;;3.52;64.59;100173.77;2260741;77;33543;-62
2021/04/11 03:31:04;;;;;;;95.22;51.30;;;;;;;3.46;64.79;100172.13;2260802;78;28846;-63
2021/04/11 03:34:07;;;;;;;91.65;46.95;;;;;;;3.44;65.21;100169.08;2261120;78;27633;-62
2021/04/11 03:37:12;;;;;;;90.35;46.68;;;;;;;3.43;65.26;100171.30;2261757;77;28815;-61
2021/04/11 03:40:19;;;;;;;82.88;46.40;;;;;;;3.43;65.30;100166.90;2260691;77;32516;-61
2021/04/11 03:43:43;;;;;;;86.02;48.63;;;;;;;3.44;65.31;100172.61;2302604;77;33887;-62
2021/04/11 03:46:59;;;;;;;90.72;50.35;;;;;;;3.45;65.36;100167.73;2256198;78;28161;-61
2021/04/11 03:50:22;;;;;;;80.93;49.50;;;;;;;3.53;65.40;100158.73;2298592;77;27546;-61
2021/04/11 03:53:36;;;;;;;94.67;49.63;;;;;;;3.48;65.34;100160.16;2178811;81;27712;-63
2021/04/11 03:56:49;;;;;;;90.00;50.90;;;;;;;3.47;65.33;100155.77;2176917;81;31182;-60
2021/04/11 04:00:03;;;;;;;88.65;50.70;;;;;;;3.46;65.30;100150.95;2174214;81;32025;-61
2021/04/11 04:03:12;;;;;;;90.38;52.25;;;;;;;3.45;65.52;100154.50;2163507;81;33137;-61
2021/04/11 04:06:26;;;;;;;88.37;50.98;;;;;;;3.44;65.51;100156.72;2156253;82;28600;-62
2021/04/11 04:09:28;;;;;;;86.70;51.98;;;;;;;3.43;65.70;100151.44;2175955;81;27783;-62
2021/04/11 04:13:04;;;;;;;91.75;52.30;;;;;;;3.42;65.66;100149.27;2172309;81;28835;-61
2021/04/11 04:16:18;;;;;;;88.10;48.23;;;;;;;3.40;65.72;100152.83;2172152;81;31712;-62
2021/04/11 04:19:32;;;;;;;80.75;44.77;;;;;;;3.41;66.10;100148.84;2161143;81;33141;-61
2021/04/11 04:23:08;;;;;;;77.03;45.85;;;;;;;3.43;66.40;100148.36;2155067;82;29103;-61
2021/04/11 04:26:40;;;;;;;73.72;39.25;;;;;;;3.49;66.58;100153.50;2179027;81;27702;-60
2021/04/11 04:30:10;;;;;;;70.62;37.78;;;;;;;3.62;66.89;100144.82;2178859;81;29804;-62
2021/04/11 04:33:25;;;;;;;66.57;35.28;;;;;;;3.80;67.15;100137.34;2217551;80;32317;-59
2021/04/11 04:36:47;;;;;;;65.67;38.23;;;;;;;4.02;67.32;100142.13;2217533;80;34009;-60
2021/04/11 04:39:56;;;;;;;66.92;36.35;;;;;;;4.22;67.20;100145.11;2216912;80;28903;-59
2021/04/11 04:43:03;;;;;;;65.92;35.28;;;;;;;4.46;67.14;100148.04;2179535;80;27667;-59
2021/04/11 04:46:14;;;;;;;62.15;33.05;;;;;;;4.66;67.11;100143.50;2152227;81;28837;-59
2021/04/11 04:49:27;;;;;;;54.53;30.90;;;;;;;4.86;67.07;100142.97;2182174;81;31152;-59
2021/04/11 04:52:31;;;;;;;51.68;30.32;;;;;;;5.06;66.71;100136.17;2004349;88;33212;-59
2021/04/11 04:55:37;;;;;;;57.43;33.28;;;;;;;5.27;66.47;100136.46;2010532;87;29850;-59
2021/04/11 04:58:43;;;;;;;58.63;33.05;;;;;;;5.47;66.22;100147.80;2037116;87;27773;-60
2021/04/11 05:01:54;;;;;;;51.88;31.50;;;;;;;5.66;65.92;100141.91;2060012;84;28840;-60
2021/04/11 05:04:59;;;;;;;54.60;29.98;;;;;;;5.86;65.72;100149.25;2077681;85;31163;-60
2021/04/11 05:08:17;;;;;;;53.78;29.52;;;;;;;6.06;65.36;100142.83;2091808;85;33203;-59
2021/04/11 05:11:30;;;;;;;53.23;30.80;;;;;;;6.22;65.07;100151.17;2091641;85;28871;-60
2021/04/11 05:14:45;;;;;;;52.80;30.68;;;;;;;6.39;64.93;100147.92;2093745;84;27780;-59
2021/04/11 05:18:05;;;;;;;51.85;29.45;;;;;;;6.58;64.55;100152.59;2096069;84;28847;-60
2021/04/11 05:21:12;;;;;;;48.63;29.48;;;;;;;6.76;64.33;100155.08;2095848;84;32040;-60
2021/04/11 05:24:21;;;;;;;50.33;30.45;;;;;;;6.92;64.24;100158.51;2095955;84;33076;-60
2021/04/11 05:27:57;;;;;;;53.38;30.88;;;;;;;7.09;63.91;100159.20;2095226;84;29303;-59
2021/04/11 05:31:06;;;;;;;53.52;30.45;;;;;;;7.22;63.77;100153.80;2196239;80;27855;-60
2021/04/11 05:34:12;;;;;;;54.60;32.15;;;;;;;7.38;63.49;100148.77;2197194;81;28810;-60
2021/04/11 05:37:50;;;;;;;50.83;30.37;;;;;;;7.56;63.33;100149.83;2197181;81;32528;-60
2021/04/11 05:41:04;;;;;;;51.75;28.17;;;;;;;7.68;62.99;100144.48;2197184;81;33146;-59
2021/04/11 05:44:20;;;;;;;44.23;26.07;;;;;;;7.88;62.85;100147.66;2191462;81;28948;-60
2021/04/11 05:47:43;;;;;;;47.58;28.38;;;;;;;8.08;62.65;100149.98;2187017;81;27974;-60
2021/04/11 05:50:59;;;;;;;50.95;30.37;;;;;;;8.41;62.38;100141.47;2106570;83;28559;-60
2021/04/11 05:54:09;;;;;;;43.38;26.85;;;;;;;8.77;61.79;100141.30;2158441;82;31153;-62
2021/04/11 05:57:22;;;;;;;43.75;26.50;;;;;;;9.09;61.36;100131.80;2144127;83;33233;-60
2021/04/11 06:00:30;;;;;;;43.90;23.95;;;;;;;9.46;61.11;100135.03;2144015;83;28852;-60
2021/04/11 06:03:35;;;;;;;44.00;23.85;;;;;;;9.84;60.67;100137.17;2153608;82;27991;-60
2021/04/11 06:06:49;;;;;;;;;;;;;;;10.23;59.70;100136.59;2164790;82;28763;-61
2021/04/11 06:10:03;;;;;;;48.98;25.43;;;;;;;10.75;58.58;100133.06;2161404;82;31241;-61
2021/04/11 06:13:41;;;;;;;51.60;29.35;;;;;;;11.41;58.69;100129.05;2251540;77;32724;-62
2021/04/11 06:16:54;;;;;;;54.70;28.12;;;;;;;12.06;58.14;100124.54;2297387;77;32262;-63
2021/04/11 06:19:57;;;;;;;36.25;22.52;;;;;;;12.50;57.76;100119.66;2261708;78;28200;-63
2021/04/11 06:23:17;;;;;;;45.43;23.57;;;;;;;13.07;56.88;100118.84;2262629;78;28811;-64
2021/04/11 06:26:45;;;;;;;45.80;22.45;;;;;;;13.62;56.33;100108.22;2262753;78;31242;-64
2021/04/11 06:30:25;;;;;;;39.78;21.95;;;;;;;14.22;55.17;100097.10;2248584;78;33128;-64
2021/04/11 06:33:48;;;;;;;38.40;20.65;;;;;;;14.77;54.08;100102.33;2238506;79;28542;-64
2021/04/11 06:36:54;;;;;;;38.75;20.45;;;;;;;15.28;53.42;100100.08;2239650;79;28176;-62
2021/04/11 06:39:56;;;;;;;33.45;17.87;;;;;;;15.74;52.87;100095.80;2244791;78;29629;-63
2021/04/11 06:43:27;;;;;;;27.00;16.85;;;;;;;16.15;51.49;100094.55;2239561;78;31198;-63
2021/04/11 06:46:55;;;;;;;25.30;16.65;;;;;;;16.50;51.05;100088.27;2238999;79;33135;-63
2021/04/11 06:50:40;;;;;;;30.72;16.93;;;;;;;16.92;49.75;100079.58;2239322;79;28862;-63
2021/04/11 06:54:00;;;;;;;28.65;16.23;;;;;;;17.48;49.39;100075.61;2221652;80;32548;-62
2021/04/11 06:57:37;;;;;;;23.50;14.30;;;;;;;18.04;49.14;100072.72;2222053;80;28825;-62
2021/04/11 07:01:18;;;;;;;22.62;15.08;;;;;;;18.50;47.80;100069.27;2234554;78;31186;-63
2021/04/11 07:04:58;;;;;;;23.02;13.38;;;;;;;18.82;45.36;100052.53;2236799;78;34470;-62
2021/04/11 07:08:28;;;;;;;24.47;14.20;;;;;;;19.31;45.36;100065.45;2251160;78;29731;-63
2021/04/11 07:11:54;;;;;;;25.52;13.18;;;;;;;19.72;44.66;100063.52;2221927;78;27592;-63
2021/04/11 07:15:33;;;;;;;22.02;12.10;;;;;;;20.06;44.21;100065.00;2211346;80;28836;-63
2021/04/11 07:19:14;;;;;;;13.40;9.20;;;;;;;20.40;42.66;100061.81;2182653;81;31250;-65
2021/04/11 07:22:46;;;;;;;15.23;9.58;;;;;;;20.69;40.50;100057.64;2125893;83;33118;-62
2021/04/11 07:26:34;;;;;;;15.98;7.92;;;;;;;20.98;39.20;100051.28;2111440;82;28870;-62
2021/04/11 07:29:57;;;;;;;13.72;7.92;;;;;;;21.08;38.05;100047.16;2100474;83;27683;-62
2021/04/11 07:33:17;;;;;;;14.45;7.75;;;;;;;21.21;35.71;100050.86;2099672;84;29137;-62
2021/04/11 07:37:13;;;;;;;11.08;7.50;;;;;;;21.50;37.94;100052.06;2099689;84;31155;-62
2021/04/11 07:41:00;;;;;;;14.05;6.85;;;;;;;21.64;35.61;100044.39;2138516;82;34251;-63
2021/04/11 07:44:53;;;;;;;9.90;5.25;;;;;;;21.97;36.31;100037.39;2328730;76;28028;-64
2021/04/11 07:48:31;;;;;;;9.75;5.47;;;;;;;22.13;35.20;100040.75;2273179;76;27658;-64
2021/04/11 07:52:16;;;;;;;9.60;5.45;;;;;;;22.41;35.87;100035.18;2300642;77;29380;-64
2021/04/11 07:55:48;;;;;;;9.98;5.17;;;;;;;22.64;33.35;100025.62;2301358;77;31701;-64
2021/04/11 07:59:20;;;;;;;7.53;4.60;;;;;;;22.65;33.80;100028.17;2297623;77;33133;-64
2021/04/11 08:02:45;;;;;;;10.68;4.80;;;;;;;22.83;33.55;100026.75;2197656;80;28547;-61
2021/04/11 08:06:13;;;;;;;11.43;4.80;;;;;;;23.08;33.82;100017.81;2197790;81;27664;-63
2021/04/11 08:09:41;;;;;;;10.35;4.50;;;;;;;23.25;31.90;100019.58;2203352;80;28832;-63
2021/04/11 08:13:38;;;;;;;8.93;5.12;;;;;;;23.46;31.39;100020.52;2247272;78;28101;-61
2021/04/11 08:16:46;;;;;;;8.63;4.80;;;;;;;23.14;31.46;100027.56;2228457;79;27949;-63
2021/04/11 08:20:20;;;;;;;11.48;4.85;;;;;;;22.90;29.49;100014.14;2228443;79;28823;-62
2021/04/11 08:23:47;;;;;;;7.17;5.17;;;;;;;22.63;29.44;100022.54;2207651;79;31239;-62
2021/04/11 08:27:41;;;;;;;11.35;5.83;;;;;;;22.00;28.45;100027.53;2189533;81;32402;-62
2021/04/11 08:31:23;;;;;;;9.38;5.25;;;;;;;21.60;31.21;100028.86;2151088;82;28971;-62
2021/04/11 08:34:37;;;;;;;9.13;4.92;;;;;;;21.73;31.21;100020.30;2155317;81;27702;-63
2021/04/11 08:37:58;;;;;;;8.18;5.00;;;;;;;21.59;30.85;100016.20;2148381;81;28991;-62
2021/04/11 08:41:20;;;;;;;9.68;5.08;;;;;;;21.38;30.39;100023.31;2138518;83;31171;-62
2021/04/11 08:44:38;;;;;;;10.65;5.22;;;;;;;20.79;29.98;100015.44;2137897;83;33473;-62
2021/04/11 08:48:05;;;;;;;10.82;4.90;;;;;;;20.41;31.62;100013.20;2140107;83;31274;-62
2021/04/11 08:51:33;;;;;;;7.60;3.85;;;;;;;20.29;32.16;100015.22;2140412;83;27628;-62
2021/04/11 08:54:49;;;;;;;9.05;4.20;;;;;;;20.25;32.25;100010.59;2140316;81;28810;-62
2021/04/11 08:58:28;;;;;;;6.60;3.40;;;;;;;20.11;32.22;100015.09;2140570;81;32041;-61
2021/04/11 09:02:11;;;;;;;5.15;2.80;;;;;;;19.88;31.84;99999.95;2140137;83;33133;-61
2021/04/11 09:05:37;;;;;;;8.53;3.52;;;;;;;19.75;32.04;99998.00;2176972;79;28874;-61
2021/04/11 09:08:48;;;;;;;4.03;2.60;;;;;;;19.67;32.20;100001.44;2207966;79;28158;-61
2021/04/11 09:12:10;;;;;;;4.65;2.22;;;;;;;19.79;32.94;99994.48;2222164;79;28928;-61
2021/04/11 09:15:47;;;;;;;3.70;2.15;;;;;;;19.99;32.42;100006.27;2178006;81;33563;-62
2021/04/11 09:18:54;;;;;;;5.00;2.45;;;;;;;20.04;32.62;100000.73;2115699;83;33202;-61
2021/04/11 09:22:22;;;;;;;5.83;2.40;;;;;;;20.13;32.53;99995.41;2115977;84;29351;-61
2021/04/11 09:25:28;;;;;;;8.38;2.30;;;;;;;20.20;32.35;99992.48;2089396;84;27722;-62
2021/04/11 09:29:01;;;;;;;8.48;3.47;;;;;;;20.06;32.00;99992.94;2088618;85;28734;-62
2021/04/11 09:32:34;;;;;;;5.25;2.20;;;;;;;20.06;31.92;99991.58;2085774;85;31227;-62
2021/04/11 09:35:59;;;;;;;5.58;2.30;;;;;;;19.89;31.49;99981.80;2081109;84;33112;-62
2021/04/11 09:39:43;;;;;;;7.50;2.70;;;;;;;19.64;32.47;99981.33;2088562;85;28875;-62
2021/04/11 09:43:15;;;;;;;8.25;2.62;;;;;;;19.58;32.71;99983.28;2088486;85;27657;-62
2021/04/11 09:46:41;;;;;;;7.03;2.85;;;;;;;19.46;32.67;99977.61;2088371;85;29492;-61
2021/04/11 09:50:17;;;;;;;6.60;2.17;;;;;;;19.33;33.36;99971.95;2216613;77;28740;-62
2021/04/11 09:53:30;;;;;;;5.40;2.90;;;;;;;19.37;33.63;99964.37;2178272;81;27755;-63
2021/04/11 09:56:55;;;;;;;5.25;2.92;;;;;;;19.40;33.28;99966.81;2197090;80;29596;-62
2021/04/11 10:00:18;;;;;;;6.42;2.98;;;;;;;19.38;33.42;99960.66;2217515;80;31132;-62
2021/04/11 10:03:48;;;;;;;6.95;3.15;;;;;;;19.43;33.63;99952.47;2215111;78;33126;-62
2021/04/11 10:07:19;;;;;;;4.75;2.30;;;;;;;19.55;33.69;99955.03;2178752;81;29987;-62
2021/04/11 10:10:55;;;;;;;6.05;2.70;;;;;;;19.61;33.56;99944.08;2200595;80;27565;-62
2021/04/11 10:14:36;;;;;;;8.78;2.77;;;;;;;19.50;32.83;99935.09;2217524;80;28836;-63
2021/04/11 10:18:18;;;;;;;7.62;4.12;;;;;;;19.39;33.26;99932.02;2216634;80;31200;-63
2021/04/11 10:21:58;;;;;;;8.33;3.22;;;;;;;19.28;33.41;99924.85;2217136;80;33129;-63
2021/04/11 10:25:33;;;;;;;4.47;2.70;;;;;;;19.28;33.43;99927.56;2217041;80;28856;-63
2021/04/11 10:28:48;;;;;;;8.43;2.90;;;;;;;19.05;33.09;99931.53;2197202;80;27655;-62
2021/04/11 10:32:11;;;;;;;8.50;3.00;;;;;;;18.88;33.95;99918.97;2199730;80;28894;-62
2021/04/11 10:35:42;;;;;;;7.17;2.62;;;;;;;18.93;34.29;99924.84;2210789;80;31018;-60
2021/04/11 10:39:07;;;;;;;6.28;2.60;;;;;;;19.06;34.18;99921.91;2193522;80;33178;-60
2021/04/11 10:42:26;;;;;;;7.95;2.90;;;;;;;19.15;33.70;99911.18;2121079;83;30036;-61
2021/04/11 10:45:46;;;;;;;9.05;3.08;;;;;;;19.17;33.69;99917.33;2219933;77;27651;-61
2021/04/11 10:49:32;;;;;;;18.17;2.67;;;;;;;19.05;33.74;99922.91;2194611;80;28390;-61
2021/04/11 10:53:26;;;;;;;6.25;2.60;;;;;;;18.88;33.44;99914.89;2217793;80;29242;-61
2021/04/11 10:56:40;;;;;;;9.93;2.67;;;;;;;18.71;34.08;99911.02;2217058;80;32557;-62
2021/04/11 11:00:30;;;;;;;9.90;2.67;;;;;;;18.61;33.98;99920.48;2216253;80;33090;-62
2021/04/11 11:04:00;;;;;;;6.42;2.45;;;;;;;18.40;33.86;99928.69;2212916;80;28605;-63
2021/04/11 11:07:20;;;;;;;5.47;2.92;;;;;;;18.22;34.34;99906.75;2176936;81;27611;-61
2021/04/11 11:11:00;;;;;;;4.20;2.33;;;;;;;18.16;34.35;99916.29;2207040;80;28885;-63
2021/04/11 11:14:41;;;;;;;5.58;2.67;;;;;;;18.20;34.80;99921.81;2216993;80;31127;-63
2021/04/11 11:18:19;;;;;;;6.97;2.40;;;;;;;18.21;35.02;99914.04;2184577;80;33601;-62
2021/04/11 11:22:18;;;;;;;5.47;2.25;;;;;;;18.30;35.21;99927.77;2178105;80;29398;-63
2021/04/11 11:25:53;;;;;;;3.40;2.22;;;;;;;18.35;34.59;99924.16;2206379;80;27720;-63
2021/04/11 11:29:12;;;;;;;6.50;3.17;;;;;;;18.35;34.95;99929.10;2213147;80;32998;-63
2021/04/11 11:32:50;;;;;;;10.05;3.40;;;;;;;18.28;34.87;99927.91;2200925;80;31211;-63
2021/04/11 11:36:03;;;;;;;4.97;2.30;;;;;;;18.25;35.29;99921.39;2136674;82;33122;-63
2021/04/11 11:39:30;;;;;;;11.20;5.22;;;;;;;18.30;35.08;99916.91;2342144;76;32302;-62
2021/04/11 11:42:56;;;;;;;5.40;2.50;;;;;;;18.23;35.22;99926.09;2306688;77;27685;-62
2021/04/11 11:46:56;;;;;;;4.95;2.08;;;;;;;18.24;35.38;99924.25;2289528;77;29879;-62
2021/04/11 11:50:21;;;;;;;5.00;2.55;;;;;;;18.29;35.50;99926.92;2282462;78;32575;-62
2021/04/11 11:53:41;;;;;;;7.35;3.47;;;;;;;18.33;35.41;99917.53;2268006;77;33158;-62
2021/04/11 11:57:16;;;;;;;9.53;2.45;;;;;;;18.37;35.64;99912.16;2269411;77;30876;-62
2021/04/11 12:00:38;;;;;;;4.60;2.02;;;;;;;18.33;35.51;99911.22;2256645;78;27827;-62
2021/04/11 12:03:50;;;;;;;5.20;2.20;;;;;;;18.37;35.48;99908.09;2232267;77;37227;-60
2021/04/11 12:06:55;;;;;;;6.95;2.55;;;;;;;18.40;34.96;99905.62;2207113;80;27697;-61
2021/04/11 12:10:27;;;;;;;6.10;2.33;;;;;;;18.39;35.79;99902.55;2178816;80;28836;-61
2021/04/11 12:13:51;;;;;;;5.50;2.10;;;;;;;18.40;35.91;99904.75;2178952;81;31145;-61
2021/04/11 12:17:20;;;;;;;2.60;1.72;;;;;;;18.35;36.05;99905.17;2168975;80;33571;-65
2021/04/11 12:20:38;;;;;;;5.47;1.82;;;;;;;18.32;35.76;99902.73;2178080;81;28550;-64
2021/04/11 12:23:56;;;;;;;5.72;2.10;;;;;;;18.31;35.65;99905.08;2178909;81;27646;-62
2021/04/11 12:27:02;;;;;;;4.28;2.02;;;;;;;18.24;35.68;99907.48;2182216;80;28830;-62
2021/04/11 12:30:09;;;;;;;3.37;1.80;;;;;;;18.22;37.01;99906.75;2180126;80;32083;-70
2021/04/11 12:33:37;;;;;;;4.05;2.02;;;;;;;18.22;37.01;99906.75;2178783;81;33122;-67
2021/04/11 12:37:12;;;;;;;1.95;1.70;;;;;;;18.35;36.93;99903.81;2186483;80;29709;-68
2021/04/11 12:40:28;;;;;;;8.40;2.55;;;;;;;18.49;36.92;99900.73;2162791;81;27715;-65
2021/04/11 12:43:58;;;;;;;5.70;2.35;;;;;;;18.64;36.79;99908.48;2171305;81;28867;-64
2021/04/11 12:47:15;;;;;;;5.72;2.60;;;;;;;18.66;36.44;99909.20;2127012;83;32054;-67
2021/04/11 12:50:31;;;;;;;3.35;1.85;;;;;;;18.56;36.63;99911.04;2153756;82;33334;-68
2021/04/11 12:53:45;;;;;;;4.00;2.10;;;;;;;18.57;36.87;99906.81;2153807;82;28908;-67
2021/04/11 12:56:58;;;;;;;4.22;1.77;;;;;;;18.56;36.90;99905.10;2153074;82;27724;-68
2021/04/11 13:00:16;;;;;;;7.05;2.62;;;;;;;18.54;36.86;99903.02;2329113;76;32324;-66
2021/04/11 13:03:23;;;;;;;4.75;2.12;;;;;;;18.47;37.18;99908.66;2275861;77;27785;-68
2021/04/11 13:07:02;;;;;;;4.50;1.70;;;;;;;18.45;37.12;99904.70;2302434;77;29738;-68
2021/04/11 13:10:26;;;;;;;9.05;2.10;;;;;;;18.42;37.62;99896.86;2303198;77;31284;-71
2021/04/11 13:13:36;;;;;;;6.95;2.45;;;;;;;18.35;37.34;99906.53;2303186;77;33268;-67
2021/04/11 13:17:04;;;;;;;7.00;2.40;;;;;;;18.15;37.71;99904.23;2293943;77;28578;-65
2021/04/11 13:20:17;;;;;;;4.17;2.25;;;;;;;17.95;38.09;99910.87;2291134;77;27662;-65
2021/04/11 13:23:33;;;;;;;8.38;2.33;;;;;;;17.83;38.50;99907.88;2265289;77;28798;-65
2021/04/11 13:26:56;;;;;;;8.58;2.45;;;;;;;17.83;38.58;99904.66;2261603;78;31132;-65
2021/04/11 13:30:24;;;;;;;5.35;2.20;;;;;;;17.75;38.50;99885.00;2260755;78;33097;-65
2021/04/11 13:33:56;;;;;;;3.98;2.40;;;;;;;17.84;38.74;99889.27;2256467;77;28860;-66
2021/04/11 13:36:59;;;;;;;4.87;2.27;;;;;;;17.95;38.59;99908.16;2237368;78;27709;-67
2021/04/11 13:40:06;;;;;;;6.22;2.67;;;;;;;18.02;38.13;99903.97;2260793;78;29719;-66
2021/04/11 13:43:25;;;;;;;5.78;2.47;;;;;;;17.99;37.66;99901.52;2294850;77;31152;-67
2021/04/11 13:46:53;;;;;;;7.87;2.50;;;;;;;17.99;37.72;99901.52;2261772;78;33167;-67
2021/04/11 13:50:19;;;;;;;4.25;2.05;;;;;;;17.98;37.79;99900.28;2298492;76;28855;-65
2021/04/11 13:53:44;;;;;;;5.28;2.70;;;;;;;18.00;37.75;99891.52;2303274;77;27642;-66
2021/04/11 13:57:13;;;;;;;4.17;2.60;;;;;;;18.00;37.73;99895.59;2298746;77;29236;-67
2021/04/11 14:00:32;;;;;;;4.10;2.60;;;;;;;18.03;37.74;99884.00;2306759;77;32301;-66
2021/04/11 14:03:49;;;;;;;6.42;3.20;;;;;;;18.03;37.82;99874.99;2272354;77;34051;-67
2021/04/11 14:06:58;;;;;;;6.20;2.83;;;;;;;18.07;37.97;99881.87;2264322;78;29309;-67
2021/04/11 14:10:33;;;;;;;4.58;2.20;;;;;;;18.15;38.06;99877.97;2265415;78;27791;-67
2021/04/11 14:13:50;;;;;;;5.35;2.42;;;;;;;18.26;37.93;99877.02;2297260;77;29784;-65
2021/04/11 14:17:18;;;;;;;8.83;3.92;;;;;;;18.31;37.69;99877.48;2297472;77;30406;-66
2021/04/11 14:20:35;;;;;;;4.33;2.67;;;;;;;18.37;37.61;99879.63;2265015;78;33123;-66
2021/04/11 14:24:10;;;;;;;5.65;2.58;;;;;;;18.44;37.81;99877.25;2267064;77;28858;-66
2021/04/11 14:27:26;;;;;;;3.87;2.58;;;;;;;18.47;37.63;99865.25;2264680;78;27699;-66
2021/04/11 14:31:14;;;;;;;4.75;2.25;;;;;;;18.46;37.52;99868.95;2226791;78;29228;-67
2021/04/11 14:34:45;;;;;;;5.55;2.92;;;;;;;18.41;37.29;99866.67;2227140;79;31128;-66
2021/04/11 14:38:21;;;;;;;7.25;2.22;;;;;;;18.44;37.29;99862.33;2343139;76;27706;-66
2021/04/11 14:41:39;;;;;;;3.30;2.05;;;;;;;18.47;37.62;99865.25;2273604;77;27717;-67
2021/04/11 14:44:50;;;;;;;9.35;2.98;;;;;;;18.47;37.29;99865.25;2261260;78;31157;-66
2021/04/11 14:48:03;;;;;;;7.28;2.75;;;;;;;18.50;37.49;99859.55;2261658;78;33475;-67
2021/04/11 14:51:47;;;;;;;5.65;2.47;;;;;;;18.57;37.57;99851.72;2291189;77;33122;-66
2021/04/11 14:54:59;;;;;;;5.05;2.22;;;;;;;18.64;37.54;99851.50;2303134;77;29399;-66
2021/04/11 14:58:22;;;;;;;5.12;2.50;;;;;;;18.65;37.61;99862.72;2264719;77;28166;-66
2021/04/11 15:01:50;;;;;;;3.62;2.15;;;;;;;18.67;37.60;99855.30;2293680;77;28820;-66
2021/04/11 15:05:22;;;;;;;4.62;2.90;;;;;;;18.69;37.55;99847.87;2260913;77;31552;-67
2021/04/11 15:08:43;;;;;;;5.53;2.47;;;;;;;18.57;37.59;99848.48;2261721;78;33022;-66
2021/04/11 15:12:00;;;;;;;5.67;2.55;;;;;;;18.52;37.67;99852.14;2262427;77;28918;-66
2021/04/11 15:15:34;;;;;;;4.85;3.05;;;;;;;18.49;37.70;99846.98;2166171;81;27679;-67
2021/04/11 15:19:16;;;;;;;3.70;2.33;;;;;;;18.47;37.95;99851.17;2166022;82;28836;-68
2021/04/11 15:22:31;;;;;;;7.72;2.60;;;;;;;18.45;37.74;99853.16;2168080;82;31141;-67
2021/04/11 15:26:00;;;;;;;6.05;2.27;;;;;;;18.37;37.89;99848.44;2188903;79;33929;-66